createdAt,value
2022-07-26T00:00:09.458Z,20.50
2022-07-26T00:05:13.122Z,20.50
2022-07-26T00:10:16.557Z,20.60
2022-07-26T00:15:21.663Z,20.70
2022-07-26T00:20:27.707Z,20.70
2022-07-26T00:25:31.706Z,20.60
2022-07-26T00:30:36.300Z,20.70
2022-07-26T00:35:39.867Z,20.70
2022-07-26T00:40:43.272Z,20.80
2022-07-26T00:45:47.936Z,20.90
2022-07-26T00:50:51.537Z,20.90
2022-07-26T00:55:54.777Z,20.90
2022-07-26T01:00:59.343Z,20.90
2022-07-26T01:06:02.997Z,20.90
2022-07-26T01:11:06.772Z,20.90
2022-07-26T01:16:11.402Z,20.80
2022-07-26T01:21:16.343Z,20.80
2022-07-26T01:26:21.113Z,20.90
2022-07-26T01:31:29.306Z,21.00
2022-07-26T01:36:32.755Z,21.10
2022-07-26T01:41:38.570Z,21.20
2022-07-26T01:46:42.349Z,21.30
2022-07-26T01:51:45.804Z,21.40
2022-07-26T01:56:50.323Z,21.50
2022-07-26T02:01:53.502Z,21.40
2022-07-26T02:06:57.076Z,21.20
2022-07-26T02:12:02.772Z,21.10
2022-07-26T02:17:06.596Z,20.90
2022-07-26T02:22:10.134Z,20.80
2022-07-26T02:27:14.621Z,20.70
2022-07-26T02:32:17.908Z,20.60
2022-07-26T02:37:21.276Z,20.50
2022-07-26T02:42:26.301Z,20.40
2022-07-26T02:47:29.764Z,20.30
2022-07-26T02:52:32.810Z,20.20
2022-07-26T02:57:45.532Z,20.20
2022-07-26T03:02:51.666Z,20.20
2022-07-26T03:07:54.763Z,20.10
2022-07-26T03:12:59.757Z,20.00
2022-07-26T03:18:03.110Z,20.00
2022-07-26T03:23:06.789Z,19.80
2022-07-26T03:28:15.990Z,19.70
2022-07-26T03:33:22.282Z,19.60
2022-07-26T03:38:25.807Z,19.60
2022-07-26T03:43:30.724Z,19.50
2022-07-26T03:48:39.876Z,19.40
2022-07-26T03:53:43.620Z,19.30
2022-07-26T03:58:48.379Z,19.30
2022-07-26T04:03:51.519Z,19.40
2022-07-26T04:08:54.814Z,19.30
2022-07-26T04:13:59.944Z,19.50
2022-07-26T04:19:03.296Z,19.50
2022-07-26T04:24:07.407Z,19.60
2022-07-26T04:29:12.779Z,19.70
2022-07-26T04:34:16.011Z,19.70
2022-07-26T04:39:24.524Z,19.70
2022-07-26T04:44:29.162Z,19.80
2022-07-26T04:49:32.779Z,19.80
2022-07-26T04:54:36.137Z,19.90
2022-07-26T04:59:41.207Z,20.00
2022-07-26T05:04:44.632Z,20.00
2022-07-26T05:09:47.874Z,20.00
2022-07-26T05:14:52.912Z,20.10
2022-07-26T05:19:58.858Z,20.10
2022-07-26T05:25:07.448Z,20.10
2022-07-26T05:30:12.485Z,20.20
2022-07-26T05:35:15.690Z,20.70
2022-07-26T05:40:19.297Z,21.00
2022-07-26T05:45:24.618Z,21.30
2022-07-26T05:50:28.459Z,21.60
2022-07-26T05:55:32.055Z,22.00
2022-07-26T06:00:36.877Z,22.20
2022-07-26T06:05:40.417Z,22.40
2022-07-26T06:10:43.918Z,22.50
2022-07-26T06:15:48.728Z,22.20
2022-07-26T06:20:52.755Z,22.00
2022-07-26T06:25:56.197Z,21.80
2022-07-26T06:31:01.114Z,21.90
2022-07-26T06:36:04.573Z,21.90
2022-07-26T06:41:08.248Z,22.00
2022-07-26T06:46:13.453Z,22.00
2022-07-26T06:51:17.101Z,22.40
2022-07-26T06:56:20.886Z,21.90
2022-07-26T07:01:57.746Z,22.00
2022-07-26T07:06:52.797Z,21.80
2022-07-26T07:12:02.489Z,21.70
2022-07-26T07:17:17.202Z,21.80
2022-07-26T07:22:23.724Z,21.80
2022-07-26T07:27:27.536Z,21.70
2022-07-26T07:32:32.543Z,22.30
2022-07-26T07:37:52.850Z,22.30
2022-07-26T07:42:57.324Z,22.70
2022-07-26T07:48:02.235Z,22.50
2022-07-26T07:53:06.113Z,22.40
2022-07-26T07:58:09.845Z,22.30
2022-07-26T08:03:17.817Z,22.60
2022-07-26T08:08:22.971Z,22.50
2022-07-26T08:13:26.474Z,23.00
2022-07-26T08:18:31.866Z,23.10
2022-07-26T08:23:35.800Z,23.00
2022-07-26T08:28:48.377Z,22.90
2022-07-26T08:33:53.220Z,23.20
2022-07-26T08:38:56.319Z,23.30
2022-07-26T08:44:06.043Z,24.00
2022-07-26T08:49:12.767Z,24.10
2022-07-26T08:54:17.204Z,24.00
2022-07-26T08:59:22.757Z,23.70
2022-07-26T09:04:32.080Z,23.40
2022-07-26T09:09:37.356Z,23.50
2022-07-26T09:14:41.320Z,23.70
2022-07-26T09:19:46.352Z,23.80
2022-07-26T09:24:49.966Z,24.00
2022-07-26T09:29:54.051Z,24.30
2022-07-26T09:35:36.981Z,24.30
2022-07-26T09:40:36.759Z,24.30
2022-07-26T09:45:40.259Z,24.70
2022-07-26T09:50:48.053Z,25.30
2022-07-26T09:55:58.458Z,25.20
2022-07-26T10:01:02.591Z,25.30
2022-07-26T10:06:07.999Z,26.10
2022-07-26T10:11:11.374Z,25.70
2022-07-26T10:16:33.882Z,25.70
2022-07-26T10:21:39.422Z,25.60
2022-07-26T10:26:45.899Z,25.80
2022-07-26T10:31:49.951Z,26.00
2022-07-26T10:36:59.226Z,26.20
2022-07-26T10:42:04.007Z,26.20
2022-07-26T10:47:19.034Z,26.50
2022-07-26T10:52:24.851Z,26.60
2022-07-26T10:57:29.559Z,26.40
2022-07-26T11:02:34.264Z,26.30
2022-07-26T11:07:48.296Z,25.70
2022-07-26T11:12:59.341Z,25.20
2022-07-26T11:18:09.818Z,24.70
2022-07-26T11:23:25.281Z,24.50
2022-07-26T11:28:28.399Z,24.80
2022-07-26T11:33:38.963Z,25.30
2022-07-26T11:38:50.862Z,25.50
2022-07-26T11:43:57.892Z,25.90
2022-07-26T11:49:06.404Z,26.70
2022-07-26T11:54:11.441Z,26.90
2022-07-26T11:59:15.195Z,26.90
2022-07-26T12:04:22.618Z,26.40
2022-07-26T12:09:31.264Z,25.90
2022-07-26T12:14:36.837Z,25.60
2022-07-26T12:19:41.010Z,25.50
2022-07-26T12:24:47.576Z,25.40
2022-07-26T12:29:51.781Z,25.20
2022-07-26T12:34:59.406Z,25.00
2022-07-26T12:40:06.390Z,24.80
2022-07-26T12:45:10.715Z,24.80
2022-07-26T12:50:15.089Z,24.80
2022-07-26T12:55:21.947Z,24.80
2022-07-26T13:00:25.145Z,24.60
2022-07-26T13:05:28.765Z,24.60
2022-07-26T13:10:35.368Z,24.60
2022-07-26T13:15:39.318Z,25.00
2022-07-26T13:20:42.736Z,25.30
2022-07-26T13:25:47.970Z,25.60
2022-07-26T13:30:51.643Z,26.10
2022-07-26T13:35:54.981Z,25.30
2022-07-26T13:40:59.960Z,24.30
2022-07-26T13:46:04.155Z,23.50
2022-07-26T13:51:08.077Z,22.90
2022-07-26T13:56:12.952Z,22.40
2022-07-26T14:01:16.187Z,22.10
2022-07-26T14:06:19.415Z,21.80
2022-07-26T14:11:24.239Z,21.70
2022-07-26T14:16:28.454Z,21.80
2022-07-26T14:21:47.174Z,22.00
2022-07-26T14:26:59.478Z,22.40
2022-07-26T14:32:03.667Z,22.50
2022-07-26T14:37:08.452Z,23.00
2022-07-26T14:42:32.724Z,23.10
2022-07-26T14:47:36.082Z,23.40
2022-07-26T14:52:39.734Z,23.50
2022-07-26T14:57:44.741Z,23.30
2022-07-26T15:02:50.548Z,23.70
2022-07-26T15:07:53.730Z,23.70
2022-07-26T15:13:06.284Z,23.60
2022-07-26T15:18:11.212Z,23.50
2022-07-26T15:23:15.591Z,23.60
2022-07-26T15:28:18.617Z,23.60
2022-07-26T15:33:23.156Z,23.30
2022-07-26T15:38:26.268Z,23.60
2022-07-26T15:43:44.199Z,23.90
2022-07-26T15:48:54.049Z,23.60
2022-07-26T15:53:57.731Z,23.40
2022-07-26T15:59:01.147Z,23.60
2022-07-26T16:04:06.759Z,23.60
2022-07-26T16:09:18.988Z,23.50
2022-07-26T16:14:23.458Z,23.40
2022-07-26T16:19:28.251Z,23.40
2022-07-26T16:24:31.806Z,23.70
2022-07-26T16:29:34.942Z,24.10
2022-07-26T16:34:39.681Z,24.50
2022-07-26T16:39:42.816Z,24.70
2022-07-26T16:44:45.989Z,25.10
2022-07-26T16:49:50.861Z,25.40
2022-07-26T16:54:53.998Z,25.10
2022-07-26T16:59:57.368Z,24.20
2022-07-26T17:05:02.115Z,23.60
2022-07-26T17:10:05.837Z,23.20
2022-07-26T17:15:11.009Z,23.00
2022-07-26T17:20:15.693Z,23.00
2022-07-26T17:25:18.908Z,22.80
2022-07-26T17:30:22.209Z,22.50
2022-07-26T17:35:26.855Z,22.40
2022-07-26T17:40:31.930Z,22.30
2022-07-26T17:45:35.935Z,22.10
2022-07-26T17:50:40.481Z,22.40
2022-07-26T17:55:43.955Z,22.60
2022-07-26T18:00:47.413Z,22.70
2022-07-26T18:05:52.432Z,22.50
2022-07-26T18:10:56.258Z,22.40
2022-07-26T18:16:04.112Z,22.30
2022-07-26T18:21:10.447Z,22.20
2022-07-26T18:26:13.550Z,21.80
2022-07-26T18:31:17.168Z,21.80
2022-07-26T18:36:21.857Z,21.80
2022-07-26T18:41:24.960Z,21.60
2022-07-26T18:46:28.184Z,21.40
2022-07-26T18:51:32.642Z,21.30
2022-07-26T18:56:35.867Z,21.00
2022-07-26T19:01:39.410Z,20.90
2022-07-26T19:06:44.142Z,20.70
2022-07-26T19:11:47.497Z,20.50
2022-07-26T19:16:51.125Z,20.40
2022-07-26T19:21:55.755Z,20.30
2022-07-26T19:26:58.842Z,20.20
2022-07-26T19:32:02.373Z,20.00
2022-07-26T19:37:07.314Z,20.00
2022-07-26T19:42:10.736Z,20.00
2022-07-26T19:47:13.893Z,20.00
2022-07-26T19:52:18.556Z,19.90
2022-07-26T19:57:21.742Z,19.90
2022-07-26T20:02:25.881Z,19.90
2022-07-26T20:07:31.019Z,19.80
2022-07-26T20:12:34.939Z,19.80
2022-07-26T20:17:39.787Z,19.80
2022-07-26T20:22:44.388Z,19.80
2022-07-26T20:27:48.322Z,19.70
2022-07-26T20:32:51.842Z,19.60
2022-07-26T20:37:56.783Z,19.50
2022-07-26T20:43:00.365Z,19.50
2022-07-26T20:48:03.859Z,19.50
2022-07-26T20:53:08.558Z,19.40
2022-07-26T20:58:12.285Z,19.40
2022-07-26T21:03:17.340Z,19.30
2022-07-26T21:08:22.106Z,19.30
2022-07-26T21:13:45.157Z,19.20
2022-07-26T21:18:52.615Z,19.20
2022-07-26T21:23:58.151Z,19.20
2022-07-26T21:29:01.459Z,19.10
2022-07-26T21:34:05.196Z,19.10
2022-07-26T21:39:10.280Z,19.10
2022-07-26T21:44:14.146Z,19.10
2022-07-26T21:49:18.371Z,19.10
2022-07-26T21:54:22.918Z,19.00
2022-07-26T21:59:26.028Z,19.00
2022-07-26T22:04:31.556Z,19.00
2022-07-26T22:09:36.869Z,19.00
2022-07-26T22:14:40.018Z,18.90
2022-07-26T22:19:43.112Z,18.90
2022-07-26T22:24:47.727Z,18.90
2022-07-26T22:29:51.907Z,18.90
2022-07-26T22:34:56.998Z,18.90
2022-07-26T22:40:01.833Z,18.90
2022-07-26T22:45:09.972Z,18.90
2022-07-26T22:50:13.432Z,18.80
2022-07-26T22:55:18.260Z,18.70
2022-07-26T23:00:21.336Z,18.80
2022-07-26T23:05:26.068Z,18.70
2022-07-26T23:10:49.783Z,18.60
2022-07-26T23:15:56.749Z,18.50
2022-07-26T23:21:03.761Z,18.60
2022-07-26T23:26:09.109Z,18.50
2022-07-26T23:31:13.441Z,18.40
2022-07-26T23:36:16.520Z,18.40
2022-07-26T23:41:21.431Z,18.40
2022-07-26T23:46:25.754Z,18.40
2022-07-26T23:51:29.419Z,18.40
2022-07-26T23:56:34.190Z,18.40
